createdAt,value
2022-11-07T00:01:29.582Z,69.21
2022-11-07T00:03:56.958Z,69.32
2022-11-07T00:06:24.065Z,68.94
2022-11-07T00:08:53.983Z,68.82
2022-11-07T00:11:21.108Z,69.36
2022-11-07T00:13:48.153Z,69.30
2022-11-07T00:16:16.808Z,69.17
2022-11-07T00:18:44.022Z,69.24
2022-11-07T00:21:11.455Z,68.78
2022-11-07T00:23:42.194Z,67.80
2022-11-07T00:26:11.536Z,66.88
2022-11-07T00:28:41.669Z,66.88
2022-11-07T00:31:10.978Z,65.83
2022-11-07T00:33:38.112Z,66.07
2022-11-07T00:36:05.447Z,66.55
2022-11-07T00:38:32.633Z,66.69
2022-11-07T00:41:04.688Z,66.70
2022-11-07T00:43:32.664Z,65.66
2022-11-07T00:46:04.040Z,66.00
2022-11-07T00:48:31.689Z,65.16
2022-11-07T00:51:13.132Z,64.64
2022-11-07T00:53:41.293Z,65.17
2022-11-07T00:56:11.219Z,65.21
2022-11-07T00:58:38.489Z,65.24
2022-11-07T01:01:14.613Z,64.45
2022-11-07T01:04:01.356Z,64.88
2022-11-07T01:06:30.096Z,63.63
2022-11-07T01:08:57.863Z,64.31
2022-11-07T01:11:26.902Z,63.92
2022-11-07T01:13:58.401Z,64.03
2022-11-07T01:16:26.294Z,64.22
2022-11-07T01:18:53.639Z,63.91
2022-11-07T01:21:21.005Z,64.18
2022-11-07T01:23:48.240Z,64.36
2022-11-07T01:26:16.177Z,64.77
2022-11-07T01:28:43.380Z,64.47
2022-11-07T01:31:12.811Z,64.82
2022-11-07T01:33:40.320Z,64.76
2022-11-07T01:36:10.130Z,65.15
2022-11-07T01:38:42.503Z,65.18
2022-11-07T01:41:21.171Z,65.42
2022-11-07T01:44:06.390Z,65.51
2022-11-07T01:46:41.183Z,65.73
2022-11-07T01:49:24.391Z,65.78
2022-11-07T01:51:57.169Z,66.05
2022-11-07T01:54:27.455Z,65.87
2022-11-07T01:56:58.947Z,66.37
2022-11-07T01:59:29.333Z,66.49
2022-11-07T02:01:56.827Z,66.49
2022-11-07T02:04:26.229Z,66.95
2022-11-07T02:07:22.969Z,67.04
2022-11-07T02:09:51.555Z,66.95
2022-11-07T02:12:19.391Z,67.34
2022-11-07T02:14:47.167Z,67.34
2022-11-07T02:17:14.915Z,67.73
2022-11-07T02:19:54.075Z,67.43
2022-11-07T02:23:00.613Z,67.95
2022-11-07T02:25:27.684Z,67.71
2022-11-07T02:27:58.161Z,67.77
2022-11-07T02:30:28.094Z,68.24
2022-11-07T02:32:55.251Z,68.25
2022-11-07T02:35:33.533Z,68.21
2022-11-07T02:38:01.701Z,68.45
2022-11-07T02:40:30.397Z,68.43
2022-11-07T02:42:58.733Z,68.14
2022-11-07T02:45:28.442Z,68.84
2022-11-07T02:47:55.545Z,68.67
2022-11-07T02:50:22.706Z,69.09
2022-11-07T02:52:50.151Z,68.87
2022-11-07T02:55:17.443Z,69.16
2022-11-07T02:57:45.026Z,69.36
2022-11-07T03:00:14.109Z,69.04
2022-11-07T03:02:47.104Z,69.41
2022-11-07T03:05:16.295Z,69.55
2022-11-07T03:07:45.103Z,70.22
2022-11-07T03:10:12.848Z,70.25
2022-11-07T03:12:39.944Z,70.41
2022-11-07T03:15:08.854Z,70.18
2022-11-07T03:17:35.983Z,70.64
2022-11-07T03:20:04.108Z,70.76
2022-11-07T03:22:31.203Z,70.90
2022-11-07T03:24:58.304Z,71.14
2022-11-07T03:27:25.604Z,71.30
2022-11-07T03:29:52.783Z,70.93
2022-11-07T03:32:19.853Z,71.03
2022-11-07T03:34:47.032Z,71.20
2022-11-07T03:37:14.939Z,71.79
2022-11-07T03:39:41.990Z,72.34
2022-11-07T03:42:09.087Z,72.31
2022-11-07T03:44:36.160Z,72.12
2022-11-07T03:47:03.209Z,72.45
2022-11-07T03:49:30.392Z,72.39
2022-11-07T03:51:57.515Z,72.59
2022-11-07T03:54:24.580Z,72.70
2022-11-07T03:56:51.643Z,72.85
2022-11-07T03:59:18.778Z,72.65
2022-11-07T04:01:46.039Z,73.31
2022-11-07T04:04:14.163Z,72.80
2022-11-07T04:06:41.349Z,72.76
2022-11-07T04:09:08.689Z,73.23
2022-11-07T04:11:54.518Z,73.63
2022-11-07T04:14:40.184Z,73.44
2022-11-07T04:17:20.677Z,73.39
2022-11-07T04:19:49.555Z,73.69
2022-11-07T04:22:17.130Z,73.61
2022-11-07T04:24:46.046Z,73.55
2022-11-07T04:27:33.032Z,74.06
2022-11-07T04:30:19.049Z,73.82
2022-11-07T04:32:56.311Z,74.22
2022-11-07T04:35:25.737Z,74.04
2022-11-07T04:37:53.144Z,74.04
2022-11-07T04:40:20.944Z,74.14
2022-11-07T04:42:48.535Z,74.11
2022-11-07T04:45:16.219Z,74.66
2022-11-07T04:47:43.593Z,74.68
2022-11-07T04:50:13.386Z,74.73
2022-11-07T04:52:43.118Z,74.35
2022-11-07T04:55:18.200Z,75.11
2022-11-07T04:57:45.758Z,74.88
2022-11-07T05:00:13.338Z,74.75
2022-11-07T05:02:40.503Z,75.20
2022-11-07T05:05:08.713Z,75.25
2022-11-07T05:07:35.849Z,75.36
2022-11-07T05:10:05.385Z,75.13
2022-11-07T05:12:35.408Z,75.42
2022-11-07T05:15:02.477Z,75.48
2022-11-07T05:17:29.923Z,75.31
2022-11-07T05:19:56.990Z,75.52
2022-11-07T05:22:42.774Z,75.53
2022-11-07T05:25:09.877Z,75.68
2022-11-07T05:27:37.020Z,75.68
2022-11-07T05:30:05.565Z,75.91
2022-11-07T05:32:34.495Z,75.88
2022-11-07T05:35:01.586Z,76.22
2022-11-07T05:37:28.629Z,75.99
2022-11-07T05:39:55.691Z,75.85
2022-11-07T05:42:22.823Z,75.58
2022-11-07T05:44:49.859Z,75.74
2022-11-07T05:47:16.931Z,75.92
2022-11-07T05:49:43.982Z,76.04
2022-11-07T05:52:11.031Z,76.10
2022-11-07T05:54:38.149Z,75.78
2022-11-07T05:57:05.205Z,76.35
2022-11-07T05:59:32.270Z,75.77
2022-11-07T06:01:59.411Z,75.90
2022-11-07T06:04:26.640Z,76.23
2022-11-07T06:06:53.709Z,76.56
2022-11-07T06:09:20.833Z,76.25
2022-11-07T06:11:47.888Z,76.40
2022-11-07T06:14:15.428Z,76.31
2022-11-07T06:16:42.754Z,76.59
2022-11-07T06:19:09.823Z,76.51
2022-11-07T06:21:36.917Z,76.59
2022-11-07T06:24:04.419Z,76.68
2022-11-07T06:26:31.511Z,76.76
2022-11-07T06:28:58.703Z,76.90
2022-11-07T06:31:25.779Z,77.66
2022-11-07T06:33:53.478Z,77.37
2022-11-07T06:36:20.759Z,77.69
2022-11-07T06:38:52.952Z,77.77
2022-11-07T06:41:20.346Z,78.20
2022-11-07T06:43:47.438Z,78.07
2022-11-07T06:46:14.754Z,78.18
2022-11-07T06:48:42.075Z,77.83
2022-11-07T06:51:10.521Z,77.95
2022-11-07T06:53:38.369Z,78.12
2022-11-07T06:56:07.458Z,78.13
2022-11-07T06:58:34.946Z,78.11
2022-11-07T07:01:06.015Z,78.31
2022-11-07T07:03:33.303Z,78.34
2022-11-07T07:06:05.658Z,78.06
2022-11-07T07:08:34.618Z,78.18
2022-11-07T07:11:06.842Z,78.04
2022-11-07T07:13:35.070Z,78.08
2022-11-07T07:16:02.574Z,78.27
2022-11-07T07:18:30.634Z,77.98
2022-11-07T07:21:08.082Z,78.01
2022-11-07T07:23:36.056Z,78.12
2022-11-07T07:26:04.563Z,78.04
2022-11-07T07:28:31.982Z,77.75
2022-11-07T07:31:26.527Z,77.79
2022-11-07T07:33:53.763Z,77.48
2022-11-07T07:36:21.305Z,77.46
2022-11-07T07:38:49.339Z,77.57
2022-11-07T07:41:17.504Z,77.52
2022-11-07T07:43:44.851Z,76.96
2022-11-07T07:46:16.239Z,76.75
2022-11-07T07:48:43.477Z,76.08
2022-11-07T07:51:11.152Z,76.24
2022-11-07T07:53:38.240Z,76.09
2022-11-07T07:56:07.324Z,75.97
2022-11-07T07:58:34.590Z,76.19
2022-11-07T08:01:01.910Z,75.87
2022-11-07T08:03:39.668Z,75.81
2022-11-07T08:06:16.402Z,76.13
2022-11-07T08:08:43.504Z,76.11
2022-11-07T08:11:10.701Z,76.00
2022-11-07T08:13:37.868Z,76.03
2022-11-07T08:16:07.581Z,75.69
2022-11-07T08:18:36.711Z,75.36
2022-11-07T08:21:04.088Z,75.15
2022-11-07T08:23:31.547Z,75.06
2022-11-07T08:26:00.005Z,74.65
2022-11-07T08:28:29.238Z,74.20
2022-11-07T08:30:57.686Z,74.19
2022-11-07T08:33:24.955Z,74.31
2022-11-07T08:35:55.275Z,74.16
2022-11-07T08:38:22.959Z,71.97
2022-11-07T08:40:50.718Z,72.23
2022-11-07T08:43:18.657Z,71.57
2022-11-07T08:45:47.554Z,70.95
2022-11-07T08:48:15.936Z,70.50
2022-11-07T08:50:43.248Z,69.72
2022-11-07T08:53:10.884Z,69.21
2022-11-07T08:55:38.232Z,69.82
2022-11-07T08:58:07.172Z,68.34
2022-11-07T09:00:35.225Z,68.27
2022-11-07T09:05:56.528Z,66.77
2022-11-07T09:08:23.656Z,66.30
2022-11-07T09:10:50.779Z,66.28
2022-11-07T09:13:19.291Z,66.73
2022-11-07T09:15:50.936Z,66.00
2022-11-07T09:18:19.768Z,65.81
2022-11-07T09:20:47.453Z,65.94
2022-11-07T09:23:14.954Z,64.69
2022-11-07T09:25:42.397Z,64.68
2022-11-07T09:28:09.686Z,65.27
2022-11-07T09:30:36.902Z,64.94
2022-11-07T09:33:04.001Z,64.61
2022-11-07T09:35:31.367Z,64.82
2022-11-07T09:37:58.426Z,65.14
2022-11-07T09:40:59.743Z,65.17
2022-11-07T09:43:44.372Z,65.19
2022-11-07T09:46:17.228Z,64.83
2022-11-07T09:48:48.160Z,65.28
2022-11-07T09:51:26.791Z,64.94
2022-11-07T09:53:59.473Z,64.27
2022-11-07T09:56:28.165Z,65.30
2022-11-07T09:58:55.771Z,64.50
2022-11-07T10:01:23.017Z,65.19
2022-11-07T10:04:18.239Z,64.74
2022-11-07T10:06:46.717Z,63.90
2022-11-07T10:09:19.689Z,63.91
2022-11-07T10:12:02.017Z,63.56
2022-11-07T10:14:47.999Z,64.10
2022-11-07T10:17:29.505Z,64.40
2022-11-07T10:20:14.809Z,64.25
2022-11-07T10:22:51.022Z,64.34
2022-11-07T10:25:25.457Z,64.13
2022-11-07T10:28:06.515Z,63.79
2022-11-07T10:30:34.765Z,63.96
2022-11-07T10:33:11.264Z,64.11
2022-11-07T10:35:42.741Z,64.13
2022-11-07T10:38:22.595Z,63.73
2022-11-07T10:40:51.044Z,62.84
2022-11-07T10:43:33.910Z,62.70
2022-11-07T10:46:07.155Z,61.69
2022-11-07T10:48:34.851Z,62.11
2022-11-07T10:51:01.986Z,62.30
2022-11-07T10:53:29.151Z,62.82
2022-11-07T10:55:56.450Z,61.46
2022-11-07T10:58:26.904Z,62.14
2022-11-07T11:01:08.374Z,62.05
2022-11-07T11:03:44.811Z,61.89
2022-11-07T11:06:22.419Z,61.34
2022-11-07T11:08:51.797Z,61.79
2022-11-07T11:11:21.594Z,61.71
2022-11-07T11:13:49.149Z,61.53
2022-11-07T11:16:26.769Z,61.82
2022-11-07T11:18:55.365Z,62.57
2022-11-07T11:21:23.047Z,62.28
2022-11-07T11:23:50.692Z,62.24
2022-11-07T11:26:20.701Z,61.96
2022-11-07T11:29:09.301Z,61.71
2022-11-07T11:31:40.834Z,62.07
2022-11-07T11:34:22.026Z,62.41
2022-11-07T11:37:05.332Z,62.25
2022-11-07T11:39:41.324Z,62.02
2022-11-07T11:42:33.237Z,62.17
2022-11-07T11:45:07.728Z,62.46
2022-11-07T11:47:39.026Z,61.52
2022-11-07T11:50:23.074Z,61.32
2022-11-07T11:52:50.655Z,61.65
2022-11-07T11:55:19.397Z,61.53
2022-11-07T11:57:59.754Z,61.83
2022-11-07T12:00:26.902Z,61.57
2022-11-07T12:03:51.377Z,62.11
2022-11-07T12:06:47.584Z,62.05
2022-11-07T12:09:18.465Z,62.66
2022-11-07T12:11:51.462Z,62.54
2022-11-07T12:14:33.793Z,62.71
2022-11-07T12:17:03.959Z,62.85
2022-11-07T12:19:41.244Z,63.13
2022-11-07T12:22:14.788Z,62.84
2022-11-07T12:24:51.456Z,62.72
2022-11-07T12:27:27.729Z,63.13
2022-11-07T12:30:25.012Z,62.59
2022-11-07T12:33:10.683Z,62.98
2022-11-07T12:36:14.273Z,62.82
2022-11-07T12:39:07.955Z,63.08
2022-11-07T12:41:43.771Z,62.70
2022-11-07T12:44:42.737Z,62.56
2022-11-07T12:47:34.759Z,62.78
2022-11-07T12:50:16.410Z,62.63
2022-11-07T12:52:53.953Z,62.56
2022-11-07T12:55:22.819Z,62.59
2022-11-07T12:57:52.511Z,62.67
2022-11-07T13:00:29.571Z,62.96
2022-11-07T13:03:16.144Z,62.47
2022-11-07T13:05:55.648Z,62.23
2022-11-07T13:08:34.605Z,62.08
2022-11-07T13:11:12.534Z,62.10
2022-11-07T13:13:59.777Z,62.90
2022-11-07T13:16:33.334Z,62.38
2022-11-07T13:19:11.095Z,62.06
2022-11-07T13:21:42.891Z,62.08
2022-11-07T13:24:22.088Z,62.15
2022-11-07T13:26:49.263Z,61.83
2022-11-07T13:29:36.698Z,61.97
2022-11-07T13:32:11.902Z,61.82
2022-11-07T13:34:42.718Z,61.80
2022-11-07T13:37:15.385Z,61.50
2022-11-07T13:39:43.177Z,61.09
2022-11-07T13:42:16.638Z,61.89
2022-11-07T13:44:52.046Z,61.25
2022-11-07T13:47:29.647Z,61.59
2022-11-07T13:50:00.082Z,62.16
2022-11-07T13:52:42.068Z,61.27
2022-11-07T13:55:16.246Z,61.96
2022-11-07T13:58:00.928Z,62.18
2022-11-07T14:00:28.768Z,61.99
2022-11-07T14:02:58.180Z,62.00
2022-11-07T14:05:27.741Z,61.91
2022-11-07T14:08:22.187Z,61.81
2022-11-07T14:10:50.786Z,62.54
2022-11-07T14:13:40.935Z,62.30
2022-11-07T14:16:18.966Z,62.33
2022-11-07T14:18:49.597Z,62.30
2022-11-07T14:21:25.547Z,62.15
2022-11-07T14:23:52.738Z,62.37
2022-11-07T14:26:23.600Z,62.57
2022-11-07T14:28:50.828Z,62.19
2022-11-07T14:31:26.283Z,62.53
2022-11-07T14:33:59.325Z,62.63
2022-11-07T14:36:26.899Z,62.52
2022-11-07T14:38:59.675Z,62.83
2022-11-07T14:41:26.901Z,62.74
2022-11-07T14:43:54.853Z,63.14
2022-11-07T14:46:26.792Z,62.99
2022-11-07T14:48:55.327Z,63.43
2022-11-07T14:51:25.545Z,63.32
2022-11-07T14:53:57.300Z,63.37
2022-11-07T14:56:29.352Z,63.63
2022-11-07T14:58:56.881Z,64.10
2022-11-07T15:01:30.944Z,64.44
2022-11-07T15:04:22.946Z,64.36
2022-11-07T15:06:50.604Z,64.32
2022-11-07T15:09:17.719Z,64.75
2022-11-07T15:11:58.891Z,64.65
2022-11-07T15:14:33.353Z,64.72
2022-11-07T15:17:04.016Z,64.89
2022-11-07T15:19:33.326Z,65.06
2022-11-07T15:22:03.214Z,65.33
2022-11-07T15:24:43.387Z,65.24
2022-11-07T15:27:13.369Z,65.70
2022-11-07T15:29:49.957Z,65.38
2022-11-07T15:32:19.398Z,65.36
2022-11-07T15:37:36.800Z,65.64
2022-11-07T15:40:13.863Z,66.05
2022-11-07T15:42:41.157Z,65.98
2022-11-07T15:45:08.811Z,66.01
2022-11-07T15:47:35.896Z,66.38
2022-11-07T15:50:04.030Z,66.46
2022-11-07T15:52:31.086Z,66.80
2022-11-07T15:54:58.261Z,66.59
2022-11-07T15:57:25.309Z,66.68
2022-11-07T15:59:52.502Z,66.82
2022-11-07T16:02:19.796Z,66.95
2022-11-07T16:04:47.124Z,67.23
2022-11-07T16:07:16.863Z,66.87
2022-11-07T16:09:44.320Z,67.58
2022-11-07T16:12:17.083Z,67.50
2022-11-07T16:14:44.970Z,67.31
2022-11-07T16:17:16.220Z,67.86
2022-11-07T16:19:43.330Z,67.83
2022-11-07T16:22:14.883Z,67.76
2022-11-07T16:24:42.122Z,67.84
2022-11-07T16:27:15.194Z,68.11
2022-11-07T16:29:44.126Z,68.39
2022-11-07T16:32:17.301Z,68.15
2022-11-07T16:34:45.363Z,68.61
2022-11-07T16:37:12.460Z,68.19
2022-11-07T16:39:39.584Z,68.65
2022-11-07T16:42:11.647Z,68.24
2022-11-07T16:44:38.750Z,68.60
2022-11-07T16:47:12.230Z,68.46
2022-11-07T16:49:39.284Z,68.30
2022-11-07T16:52:06.449Z,68.27
2022-11-07T16:54:33.654Z,68.24
2022-11-07T16:57:01.728Z,68.31
2022-11-07T16:59:28.950Z,68.32
2022-11-07T17:01:56.157Z,68.53
2022-11-07T17:04:23.365Z,68.62
2022-11-07T17:06:50.570Z,68.50
2022-11-07T17:09:20.869Z,68.90
2022-11-07T17:11:50.920Z,68.86
2022-11-07T17:14:18.371Z,68.77
2022-11-07T17:16:47.452Z,68.62
2022-11-07T17:19:15.462Z,68.80
2022-11-07T17:21:46.382Z,69.00
2022-11-07T17:24:14.047Z,69.15
2022-11-07T17:26:41.145Z,68.90
2022-11-07T17:29:12.240Z,69.38
2022-11-07T17:31:40.218Z,69.12
2022-11-07T17:34:07.398Z,69.27
2022-11-07T17:36:40.349Z,69.36
2022-11-07T17:39:11.643Z,69.22
2022-11-07T17:41:41.320Z,69.03
2022-11-07T17:44:08.914Z,68.66
2022-11-07T17:46:40.744Z,68.71
2022-11-07T17:49:08.916Z,69.18
2022-11-07T17:51:36.038Z,68.59
2022-11-07T17:54:04.285Z,68.85
2022-11-07T17:56:32.642Z,68.76
2022-11-07T17:59:05.951Z,68.82
2022-11-07T18:01:35.380Z,68.66
2022-11-07T18:04:03.926Z,68.87
2022-11-07T18:06:34.520Z,68.73
2022-11-07T18:09:02.631Z,68.33
2022-11-07T18:11:30.676Z,68.81
2022-11-07T18:13:59.730Z,68.54
2022-11-07T18:16:29.736Z,69.04
2022-11-07T18:18:58.120Z,68.63
2022-11-07T18:21:25.954Z,68.80
2022-11-07T18:23:53.436Z,68.82
2022-11-07T18:26:30.193Z,68.86
2022-11-07T18:29:03.086Z,68.60
2022-11-07T18:31:30.879Z,68.62
2022-11-07T18:34:04.796Z,68.66
2022-11-07T18:36:35.307Z,68.66
2022-11-07T18:39:05.094Z,68.49
2022-11-07T18:41:32.805Z,68.64
2022-11-07T18:44:04.389Z,68.77
2022-11-07T18:46:32.453Z,68.50
2022-11-07T18:48:59.820Z,68.91
2022-11-07T18:51:26.936Z,68.31
2022-11-07T18:53:54.336Z,68.44
2022-11-07T18:56:21.771Z,68.47
2022-11-07T18:58:48.970Z,68.67
2022-11-07T19:01:19.251Z,68.86
2022-11-07T19:03:49.904Z,68.41
2022-11-07T19:06:19.852Z,68.47
2022-11-07T19:08:47.994Z,68.55
2022-11-07T19:11:17.738Z,68.53
2022-11-07T19:13:48.518Z,68.20
2022-11-07T19:16:17.510Z,68.24
2022-11-07T19:18:49.334Z,68.68
2022-11-07T19:21:19.486Z,68.46
2022-11-07T19:23:47.981Z,68.26
2022-11-07T19:26:15.443Z,68.44
2022-11-07T19:28:42.521Z,68.35
2022-11-07T19:31:12.972Z,68.57
2022-11-07T19:33:41.520Z,68.58
2022-11-07T19:36:13.152Z,68.28
2022-11-07T19:38:40.690Z,68.52
2022-11-07T19:41:08.645Z,68.91
2022-11-07T19:43:36.325Z,68.63
2022-11-07T19:46:10.655Z,68.89
2022-11-07T19:48:37.719Z,68.81
2022-11-07T19:51:09.686Z,69.19
2022-11-07T19:53:36.774Z,68.81
2022-11-07T19:56:08.776Z,69.05
2022-11-07T19:58:37.122Z,69.22
2022-11-07T20:01:15.661Z,69.32
2022-11-07T20:03:47.430Z,69.55
2022-11-07T20:06:16.444Z,69.53
2022-11-07T20:08:45.513Z,69.88
2022-11-07T20:11:14.320Z,69.47
2022-11-07T20:13:41.558Z,69.43
2022-11-07T20:16:09.197Z,69.68
2022-11-07T20:18:37.225Z,69.67
2022-11-07T20:21:06.706Z,69.64
2022-11-07T20:23:34.011Z,69.46
2022-11-07T20:26:08.703Z,69.69
2022-11-07T20:28:36.145Z,69.69
2022-11-07T20:31:08.113Z,69.98
2022-11-07T20:33:35.420Z,70.02
2022-11-07T20:36:05.459Z,69.97
2022-11-07T20:38:32.827Z,69.96
2022-11-07T20:41:01.118Z,69.82
2022-11-07T20:43:28.218Z,69.96
2022-11-07T20:45:55.337Z,69.87
2022-11-07T20:48:22.741Z,69.87
2022-11-07T20:50:49.962Z,69.77
2022-11-07T20:53:17.412Z,70.12
2022-11-07T20:55:44.790Z,69.87
2022-11-07T20:58:12.030Z,70.19
2022-11-07T21:00:40.777Z,69.90
2022-11-07T21:03:13.205Z,70.46
2022-11-07T21:05:40.434Z,70.60
2022-11-07T21:08:07.589Z,70.65
2022-11-07T21:10:34.763Z,70.33
2022-11-07T21:13:01.881Z,70.58
2022-11-07T21:15:29.520Z,70.67
2022-11-07T21:17:56.578Z,70.93
2022-11-07T21:20:24.596Z,70.80
2022-11-07T21:22:51.630Z,71.11
2022-11-07T21:25:18.695Z,71.13
2022-11-07T21:27:45.776Z,71.46
2022-11-07T21:30:13.372Z,71.14
2022-11-07T21:32:43.704Z,71.11
2022-11-07T21:35:11.847Z,71.88
2022-11-07T21:37:38.941Z,71.78
2022-11-07T21:40:06.721Z,71.39
2022-11-07T21:42:33.769Z,72.01
2022-11-07T21:45:00.873Z,71.65
2022-11-07T21:47:29.954Z,71.69
2022-11-07T21:49:57.134Z,72.03
2022-11-07T21:52:24.269Z,72.21
2022-11-07T21:54:51.355Z,72.08
2022-11-07T21:57:18.451Z,72.28
2022-11-07T21:59:46.334Z,72.06
2022-11-07T22:02:13.877Z,71.91
2022-11-07T22:04:41.027Z,72.25
2022-11-07T22:07:08.050Z,72.14
2022-11-07T22:09:35.148Z,72.16
2022-11-07T22:12:02.203Z,72.47
2022-11-07T22:14:29.291Z,72.44
2022-11-07T22:16:56.833Z,72.51
2022-11-07T22:19:25.151Z,72.27
2022-11-07T22:21:52.230Z,72.31
2022-11-07T22:24:19.281Z,72.12
2022-11-07T22:26:46.582Z,72.59
2022-11-07T22:29:13.702Z,72.30
2022-11-07T22:31:40.835Z,72.23
2022-11-07T22:34:07.905Z,72.24
2022-11-07T22:36:34.965Z,72.16
2022-11-07T22:39:02.034Z,72.30
2022-11-07T22:41:29.825Z,72.37
2022-11-07T22:43:57.526Z,72.38
2022-11-07T22:46:26.840Z,72.35
2022-11-07T22:48:54.889Z,72.15
2022-11-07T22:51:27.803Z,72.57
2022-11-07T22:53:57.058Z,72.65
2022-11-07T22:56:24.708Z,72.37
2022-11-07T22:58:52.023Z,72.60
2022-11-07T23:01:24.398Z,72.45
2022-11-07T23:03:53.541Z,72.64
2022-11-07T23:06:21.597Z,72.82
2022-11-07T23:08:48.985Z,72.36
2022-11-07T23:14:11.525Z,72.38
2022-11-07T23:16:40.815Z,72.43
2022-11-07T23:19:11.899Z,72.45
2022-11-07T23:21:39.049Z,72.66
2022-11-07T23:24:06.314Z,72.69
2022-11-07T23:26:34.332Z,72.93
2022-11-07T23:29:10.565Z,72.69
2022-11-07T23:31:43.960Z,72.97
2022-11-07T23:34:11.800Z,73.51
2022-11-07T23:36:43.569Z,73.00
2022-11-07T23:39:14.550Z,73.45
2022-11-07T23:41:41.932Z,73.45
2022-11-07T23:44:10.155Z,73.66
2022-11-07T23:46:55.891Z,73.30
2022-11-07T23:49:41.425Z,73.57
2022-11-07T23:52:08.786Z,73.82
2022-11-07T23:54:55.218Z,73.42
2022-11-07T23:57:23.330Z,73.83
